Yantis, TX (75497)

3:21 PM CST on March 01, 2017 (GMT -0600)
| | Change Station
Active Advisory: Lake Wind Advisory

Elev -9999 ft 0.00 °N, 0.00 °E | Updated 9 minutes ago

Clear
Clear
°F
Feels Like °F
N
Wind Variable Wind from North
Gusts mph

Today
High -- | Low -- °F
--% Chance of Precip.
Yesterday
High -- | Low -- °F
Precip. -- in
Pressure 30.18 in
Visibility 10.0 miles
Clouds Clear
Dew Point Not available.
Humidity Not available.
Rainfall --
Snow Depth Not available.
6:49 AM 6:19 PM
Waxing Crescent, 13% visible
METAR KJDD 012115Z AUTO 33014G20KT 10SM CLR 19/M06 A3018 RMK AO2
Pressure 30.18 in
Visibility 10.0 miles
Clouds Clear
Dew Point Not available.
Humidity Not available.
Rainfall --
Snow Depth Not available.
6:49 AM 6:19 PM
Waxing Crescent, 13% visible
METAR KJDD 012115Z AUTO 33014G20KT 10SM CLR 19/M06 A3018 RMK AO2

Get Your Daily Forecast Email!

Thanks for signing up!

Be on the lookout for a verification email in your inbox.

You'll start receiving the daily forecast at 8 AM.

×

10-Day Weather Forecast

Almanac

Astronomy

Mar. 01, 2017 Rise Set
Actual Time
Civil Twilight
Nautical Twilight
Astronomical Twilight
Moon
Length of Visible Light
Length of Day
Tomorrow will be .
, % of the Moon is Illuminated

Today's Extremes

State Highs State Lows

Community

WunderPhotos

Upload Photos

1,962,540 photos uploaded!

WunderBlog® & News

Nearby

Air Quality

  Air Quality AQ Index Pollutant
Not available.

Snow Depth

Station Depth Elevation

Earthquake Activity

City Distance Mag. Time & Date
Minimum magnitude displayed is 2.5.

Coastal Water Temperatures

Place Temperature

Stations

Nearby Weather Stations

Station Location Temp. Windchill Dew Point Humidity Wind Precip. Elev Updated Type
                   

Watches & Warnings

Lake Wind Advisory
Issued: 2:43 PM CST Mar. 1, 2017 – National Weather Service

... Lake Wind Advisory remains in effect until 6 PM CST this
evening...

* event... northwest winds from 15 to 20 mph with gusts to 30 mph
will continue over extreme southeast Oklahoma, southwest
Arkansas, northeast Texas and north Louisiana.

* Timing... until 6 PM CST.

* Impact... winds will continue to produce rough chop on area
lakes and open waterways, which may be hazardous to boaters.

Precautionary/preparedness actions...

A lake Wind Advisory indicates that winds will cause rough chop
on area lakes. Small boats will be especially prone to capsizing.



20